Terminal Aerodrome Forecast
Issued by NWS

Current Version | Previous Version | Text Only | Print | Product List | Glossary On
Versions: 1 2 3 4 5 6 7 8 9 10 11 12 13 14
000
FTUS46 KMTR 020500
TAFSTS
TAF
KSTS 020539Z 0206/0306 15006KT P6SM SCT004
     FM020700 15003KT P6SM OVC004
     FM021100 VRB03KT 2SM BR OVC003
     FM021700 17003KT P6SM SKC
     FM022000 17009KT P6SM SKC=

USA.gov is the U.S. government's official web portal to all federal, state and local government web resources and services.